sensor_id;sensor_type;location;lat;lon;timestamp;P1;durP1;ratioP1;P2;durP2;ratioP2
1785;SDS011;890;48.158;11.540;2023-03-05T00:01:22;13.90;;;7.03;;
1785;SDS011;890;48.158;11.540;2023-03-05T00:03:50;10.97;;;5.33;;
1785;SDS011;890;48.158;11.540;2023-03-05T00:06:20;11.17;;;7.97;;
1785;SDS011;890;48.158;11.540;2023-03-05T00:08:48;11.20;;;7.20;;
1785;SDS011;890;48.158;11.540;2023-03-05T00:11:14;14.80;;;8.40;;
1785;SDS011;890;48.158;11.540;2023-03-05T00:13:40;12.83;;;7.57;;
1785;SDS011;890;48.158;11.540;2023-03-05T00:16:08;8.80;;;6.40;;
1785;SDS011;890;48.158;11.540;2023-03-05T00:18:35;8.63;;;6.27;;
1785;SDS011;890;48.158;11.540;2023-03-05T00:21:01;9.93;;;5.80;;
1785;SDS011;890;48.158;11.540;2023-03-05T00:23:27;11.50;;;8.20;;
1785;SDS011;890;48.158;11.540;2023-03-05T00:25:53;11.53;;;6.03;;
1785;SDS011;890;48.158;11.540;2023-03-05T00:28:18;13.73;;;7.80;;
1785;SDS011;890;48.158;11.540;2023-03-05T00:30:44;15.03;;;9.23;;
1785;SDS011;890;48.158;11.540;2023-03-05T00:33:11;13.70;;;8.13;;
1785;SDS011;890;48.158;11.540;2023-03-05T00:35:38;12.17;;;5.53;;
1785;SDS011;890;48.158;11.540;2023-03-05T00:38:04;14.63;;;9.83;;
1785;SDS011;890;48.158;11.540;2023-03-05T00:40:30;12.90;;;8.33;;
1785;SDS011;890;48.158;11.540;2023-03-05T00:42:58;9.30;;;6.10;;
1785;SDS011;890;48.158;11.540;2023-03-05T00:45:24;29.67;;;8.93;;
1785;SDS011;890;48.158;11.540;2023-03-05T00:47:49;19.97;;;8.10;;
1785;SDS011;890;48.158;11.540;2023-03-05T00:50:15;12.13;;;6.47;;
1785;SDS011;890;48.158;11.540;2023-03-05T00:52:40;8.97;;;4.00;;
1785;SDS011;890;48.158;11.540;2023-03-05T00:55:06;13.87;;;9.73;;
1785;SDS011;890;48.158;11.540;2023-03-05T00:57:32;13.63;;;8.03;;
1785;SDS011;890;48.158;11.540;2023-03-05T00:59:57;9.40;;;7.00;;
1785;SDS011;890;48.158;11.540;2023-03-05T01:02:23;13.53;;;7.40;;
1785;SDS011;890;48.158;11.540;2023-03-05T01:04:49;10.43;;;5.20;;
1785;SDS011;890;48.158;11.540;2023-03-05T01:07:15;12.90;;;7.43;;
1785;SDS011;890;48.158;11.540;2023-03-05T01:09:41;12.13;;;6.70;;
1785;SDS011;890;48.158;11.540;2023-03-05T01:12:06;11.30;;;7.20;;
1785;SDS011;890;48.158;11.540;2023-03-05T01:14:32;10.03;;;6.90;;
1785;SDS011;890;48.158;11.540;2023-03-05T01:16:59;11.40;;;6.17;;
1785;SDS011;890;48.158;11.540;2023-03-05T01:19:25;11.17;;;6.70;;
1785;SDS011;890;48.158;11.540;2023-03-05T01:21:50;14.23;;;8.00;;
1785;SDS011;890;48.158;11.540;2023-03-05T01:24:16;13.83;;;8.50;;
1785;SDS011;890;48.158;11.540;2023-03-05T01:26:41;11.53;;;9.03;;
1785;SDS011;890;48.158;11.540;2023-03-05T01:29:07;14.83;;;8.17;;
1785;SDS011;890;48.158;11.540;2023-03-05T01:31:33;12.03;;;5.33;;
1785;SDS011;890;48.158;11.540;2023-03-05T01:33:58;12.93;;;7.63;;
1785;SDS011;890;48.158;11.540;2023-03-05T01:36:24;11.20;;;6.63;;
1785;SDS011;890;48.158;11.540;2023-03-05T01:38:50;10.33;;;5.87;;
1785;SDS011;890;48.158;11.540;2023-03-05T01:41:16;12.70;;;7.50;;
1785;SDS011;890;48.158;11.540;2023-03-05T01:43:43;13.30;;;7.63;;
1785;SDS011;890;48.158;11.540;2023-03-05T01:46:16;16.73;;;6.90;;
1785;SDS011;890;48.158;11.540;2023-03-05T01:49:05;8.43;;;5.80;;
1785;SDS011;890;48.158;11.540;2023-03-05T01:51:58;15.37;;;8.60;;
1785;SDS011;890;48.158;11.540;2023-03-05T01:54:42;8.13;;;5.80;;
1785;SDS011;890;48.158;11.540;2023-03-05T01:57:32;13.37;;;6.70;;
1785;SDS011;890;48.158;11.540;2023-03-05T02:00:21;12.23;;;9.10;;
1785;SDS011;890;48.158;11.540;2023-03-05T02:02:51;11.43;;;6.63;;
1785;SDS011;890;48.158;11.540;2023-03-05T02:05:19;14.37;;;7.03;;
1785;SDS011;890;48.158;11.540;2023-03-05T02:07:51;10.97;;;8.00;;
1785;SDS011;890;48.158;11.540;2023-03-05T02:10:22;11.60;;;7.03;;
1785;SDS011;890;48.158;11.540;2023-03-05T02:12:53;11.13;;;6.20;;
1785;SDS011;890;48.158;11.540;2023-03-05T02:15:22;18.50;;;9.43;;
1785;SDS011;890;48.158;11.540;2023-03-05T02:17:47;11.20;;;7.90;;
1785;SDS011;890;48.158;11.540;2023-03-05T02:20:21;14.53;;;5.63;;
1785;SDS011;890;48.158;11.540;2023-03-05T02:22:49;16.20;;;8.40;;
1785;SDS011;890;48.158;11.540;2023-03-05T02:25:16;11.27;;;6.67;;
1785;SDS011;890;48.158;11.540;2023-03-05T02:27:43;11.53;;;7.23;;
1785;SDS011;890;48.158;11.540;2023-03-05T02:30:23;9.73;;;5.80;;
1785;SDS011;890;48.158;11.540;2023-03-05T02:32:49;12.73;;;5.77;;
1785;SDS011;890;48.158;11.540;2023-03-05T02:35:15;9.20;;;5.80;;
1785;SDS011;890;48.158;11.540;2023-03-05T02:37:40;10.20;;;6.07;;
1785;SDS011;890;48.158;11.540;2023-03-05T02:40:07;15.73;;;9.60;;
1785;SDS011;890;48.158;11.540;2023-03-05T02:42:34;7.50;;;5.93;;
1785;SDS011;890;48.158;11.540;2023-03-05T02:45:00;8.93;;;5.67;;
1785;SDS011;890;48.158;11.540;2023-03-05T02:47:26;12.67;;;6.63;;
1785;SDS011;890;48.158;11.540;2023-03-05T02:49:52;17.53;;;9.93;;
1785;SDS011;890;48.158;11.540;2023-03-05T02:52:18;11.73;;;6.83;;
1785;SDS011;890;48.158;11.540;2023-03-05T02:54:44;11.73;;;8.30;;
1785;SDS011;890;48.158;11.540;2023-03-05T02:57:10;16.23;;;8.20;;
1785;SDS011;890;48.158;11.540;2023-03-05T02:59:35;7.90;;;5.10;;
1785;SDS011;890;48.158;11.540;2023-03-05T03:02:01;10.00;;;6.40;;
1785;SDS011;890;48.158;11.540;2023-03-05T03:04:27;13.73;;;7.23;;
1785;SDS011;890;48.158;11.540;2023-03-05T03:06:52;16.13;;;7.77;;
1785;SDS011;890;48.158;11.540;2023-03-05T03:09:18;12.37;;;8.93;;
1785;SDS011;890;48.158;11.540;2023-03-05T03:11:44;15.93;;;7.53;;
1785;SDS011;890;48.158;11.540;2023-03-05T03:14:09;13.23;;;6.87;;
1785;SDS011;890;48.158;11.540;2023-03-05T03:16:35;13.43;;;7.60;;
1785;SDS011;890;48.158;11.540;2023-03-05T03:19:00;13.87;;;6.43;;
1785;SDS011;890;48.158;11.540;2023-03-05T03:21:26;15.87;;;7.47;;
1785;SDS011;890;48.158;11.540;2023-03-05T03:23:52;9.77;;;7.00;;
1785;SDS011;890;48.158;11.540;2023-03-05T03:26:17;14.50;;;7.83;;
1785;SDS011;890;48.158;11.540;2023-03-05T03:28:43;14.20;;;8.73;;
1785;SDS011;890;48.158;11.540;2023-03-05T03:31:09;15.93;;;8.67;;
1785;SDS011;890;48.158;11.540;2023-03-05T03:33:35;15.63;;;8.97;;
1785;SDS011;890;48.158;11.540;2023-03-05T03:36:01;16.93;;;8.33;;
1785;SDS011;890;48.158;11.540;2023-03-05T03:38:28;14.43;;;8.30;;
1785;SDS011;890;48.158;11.540;2023-03-05T03:40:53;14.93;;;7.10;;
1785;SDS011;890;48.158;11.540;2023-03-05T03:43:19;11.90;;;5.80;;
1785;SDS011;890;48.158;11.540;2023-03-05T03:45:44;14.53;;;8.33;;
1785;SDS011;890;48.158;11.540;2023-03-05T03:48:10;14.40;;;9.43;;
1785;SDS011;890;48.158;11.540;2023-03-05T03:50:40;16.37;;;9.00;;
1785;SDS011;890;48.158;11.540;2023-03-05T03:53:06;10.97;;;7.13;;
1785;SDS011;890;48.158;11.540;2023-03-05T03:55:32;9.90;;;6.13;;
1785;SDS011;890;48.158;11.540;2023-03-05T03:57:59;11.97;;;7.33;;
1785;SDS011;890;48.158;11.540;2023-03-05T04:00:24;9.83;;;7.40;;
1785;SDS011;890;48.158;11.540;2023-03-05T04:02:50;12.83;;;7.60;;
1785;SDS011;890;48.158;11.540;2023-03-05T04:05:15;16.80;;;8.00;;
1785;SDS011;890;48.158;11.540;2023-03-05T04:07:41;15.07;;;8.40;;
1785;SDS011;890;48.158;11.540;2023-03-05T04:10:07;15.20;;;9.07;;
1785;SDS011;890;48.158;11.540;2023-03-05T04:12:33;12.80;;;8.80;;
1785;SDS011;890;48.158;11.540;2023-03-05T04:14:58;12.40;;;7.90;;
1785;SDS011;890;48.158;11.540;2023-03-05T04:17:24;10.03;;;6.43;;
1785;SDS011;890;48.158;11.540;2023-03-05T04:19:51;17.17;;;8.73;;
1785;SDS011;890;48.158;11.540;2023-03-05T04:22:17;12.90;;;6.67;;
1785;SDS011;890;48.158;11.540;2023-03-05T04:24:43;11.30;;;6.30;;
1785;SDS011;890;48.158;11.540;2023-03-05T04:27:08;11.00;;;7.90;;
1785;SDS011;890;48.158;11.540;2023-03-05T04:29:34;9.73;;;6.60;;
1785;SDS011;890;48.158;11.540;2023-03-05T04:32:00;16.83;;;8.57;;
1785;SDS011;890;48.158;11.540;2023-03-05T04:34:26;10.63;;;6.83;;
1785;SDS011;890;48.158;11.540;2023-03-05T04:36:52;14.60;;;9.87;;
1785;SDS011;890;48.158;11.540;2023-03-05T04:39:18;15.97;;;7.20;;
1785;SDS011;890;48.158;11.540;2023-03-05T04:41:45;13.33;;;6.20;;
1785;SDS011;890;48.158;11.540;2023-03-05T04:44:11;16.37;;;7.40;;
1785;SDS011;890;48.158;11.540;2023-03-05T04:46:37;12.73;;;5.60;;
1785;SDS011;890;48.158;11.540;2023-03-05T04:49:03;14.83;;;9.10;;
1785;SDS011;890;48.158;11.540;2023-03-05T04:51:28;15.20;;;7.40;;
1785;SDS011;890;48.158;11.540;2023-03-05T04:53:54;18.70;;;7.20;;
1785;SDS011;890;48.158;11.540;2023-03-05T04:56:19;12.40;;;6.23;;
1785;SDS011;890;48.158;11.540;2023-03-05T04:58:45;12.40;;;7.43;;
1785;SDS011;890;48.158;11.540;2023-03-05T05:01:11;11.83;;;8.00;;
1785;SDS011;890;48.158;11.540;2023-03-05T05:03:37;10.50;;;6.80;;
1785;SDS011;890;48.158;11.540;2023-03-05T05:06:02;13.87;;;7.40;;
1785;SDS011;890;48.158;11.540;2023-03-05T05:08:28;11.60;;;6.63;;
1785;SDS011;890;48.158;11.540;2023-03-05T05:11:01;11.60;;;7.43;;
1785;SDS011;890;48.158;11.540;2023-03-05T05:13:28;13.83;;;8.00;;
1785;SDS011;890;48.158;11.540;2023-03-05T05:15:54;20.83;;;9.70;;
1785;SDS011;890;48.158;11.540;2023-03-05T05:18:21;12.43;;;9.20;;
1785;SDS011;890;48.158;11.540;2023-03-05T05:20:47;13.57;;;7.17;;
1785;SDS011;890;48.158;11.540;2023-03-05T05:23:13;8.20;;;5.60;;
1785;SDS011;890;48.158;11.540;2023-03-05T05:25:39;14.67;;;9.67;;
1785;SDS011;890;48.158;11.540;2023-03-05T05:28:05;12.93;;;8.50;;
1785;SDS011;890;48.158;11.540;2023-03-05T05:30:30;12.27;;;7.70;;
1785;SDS011;890;48.158;11.540;2023-03-05T05:32:56;8.67;;;7.03;;
1785;SDS011;890;48.158;11.540;2023-03-05T05:35:21;15.70;;;9.30;;
1785;SDS011;890;48.158;11.540;2023-03-05T05:37:47;12.73;;;8.00;;
1785;SDS011;890;48.158;11.540;2023-03-05T05:40:13;16.20;;;7.00;;
1785;SDS011;890;48.158;11.540;2023-03-05T05:42:39;20.63;;;8.63;;
1785;SDS011;890;48.158;11.540;2023-03-05T05:45:05;13.23;;;8.23;;
1785;SDS011;890;48.158;11.540;2023-03-05T05:47:31;16.80;;;9.03;;
1785;SDS011;890;48.158;11.540;2023-03-05T05:49:57;14.20;;;6.90;;
1785;SDS011;890;48.158;11.540;2023-03-05T05:52:22;9.73;;;7.23;;
1785;SDS011;890;48.158;11.540;2023-03-05T05:54:48;13.40;;;8.03;;
1785;SDS011;890;48.158;11.540;2023-03-05T05:57:14;21.33;;;8.90;;
1785;SDS011;890;48.158;11.540;2023-03-05T05:59:39;12.90;;;7.83;;
1785;SDS011;890;48.158;11.540;2023-03-05T06:02:05;19.00;;;7.40;;
1785;SDS011;890;48.158;11.540;2023-03-05T06:04:32;19.30;;;11.20;;
1785;SDS011;890;48.158;11.540;2023-03-05T06:06:58;14.53;;;9.00;;
1785;SDS011;890;48.158;11.540;2023-03-05T06:09:24;11.53;;;7.70;;
1785;SDS011;890;48.158;11.540;2023-03-05T06:11:50;12.03;;;9.50;;
1785;SDS011;890;48.158;11.540;2023-03-05T06:14:16;14.30;;;7.93;;
1785;SDS011;890;48.158;11.540;2023-03-05T06:16:42;13.03;;;8.40;;
1785;SDS011;890;48.158;11.540;2023-03-05T06:19:08;14.27;;;6.93;;
1785;SDS011;890;48.158;11.540;2023-03-05T06:21:36;14.67;;;9.07;;
1785;SDS011;890;48.158;11.540;2023-03-05T06:24:02;18.87;;;9.90;;
1785;SDS011;890;48.158;11.540;2023-03-05T06:26:28;10.20;;;7.57;;
1785;SDS011;890;48.158;11.540;2023-03-05T06:28:54;13.63;;;7.23;;
1785;SDS011;890;48.158;11.540;2023-03-05T06:31:21;24.13;;;8.33;;
1785;SDS011;890;48.158;11.540;2023-03-05T06:33:49;17.50;;;8.97;;
1785;SDS011;890;48.158;11.540;2023-03-05T06:36:17;11.93;;;6.60;;
1785;SDS011;890;48.158;11.540;2023-03-05T06:38:44;12.50;;;6.90;;
1785;SDS011;890;48.158;11.540;2023-03-05T06:41:11;26.83;;;10.60;;
1785;SDS011;890;48.158;11.540;2023-03-05T06:43:39;13.23;;;7.40;;
1785;SDS011;890;48.158;11.540;2023-03-05T06:46:09;15.30;;;8.63;;
1785;SDS011;890;48.158;11.540;2023-03-05T06:48:35;12.40;;;7.60;;
1785;SDS011;890;48.158;11.540;2023-03-05T06:51:00;14.63;;;8.77;;
1785;SDS011;890;48.158;11.540;2023-03-05T06:53:26;14.87;;;8.00;;
1785;SDS011;890;48.158;11.540;2023-03-05T06:55:52;13.53;;;9.60;;
1785;SDS011;890;48.158;11.540;2023-03-05T06:58:19;11.13;;;6.90;;
1785;SDS011;890;48.158;11.540;2023-03-05T07:00:44;10.87;;;6.83;;
1785;SDS011;890;48.158;11.540;2023-03-05T07:03:10;13.77;;;7.37;;
1785;SDS011;890;48.158;11.540;2023-03-05T07:05:37;14.53;;;7.87;;
1785;SDS011;890;48.158;11.540;2023-03-05T07:08:03;13.53;;;8.30;;
1785;SDS011;890;48.158;11.540;2023-03-05T07:10:29;18.03;;;8.63;;
1785;SDS011;890;48.158;11.540;2023-03-05T07:12:55;13.83;;;7.90;;
1785;SDS011;890;48.158;11.540;2023-03-05T07:15:21;12.70;;;7.47;;
1785;SDS011;890;48.158;11.540;2023-03-05T07:17:47;14.47;;;7.20;;
1785;SDS011;890;48.158;11.540;2023-03-05T07:20:12;11.53;;;5.97;;
1785;SDS011;890;48.158;11.540;2023-03-05T07:22:38;14.93;;;8.40;;
1785;SDS011;890;48.158;11.540;2023-03-05T07:25:04;11.60;;;6.53;;
1785;SDS011;890;48.158;11.540;2023-03-05T07:27:33;29.57;;;19.40;;
1785;SDS011;890;48.158;11.540;2023-03-05T07:30:00;27.30;;;18.87;;
1785;SDS011;890;48.158;11.540;2023-03-05T07:32:25;18.23;;;9.83;;
1785;SDS011;890;48.158;11.540;2023-03-05T07:34:51;14.30;;;7.93;;
1785;SDS011;890;48.158;11.540;2023-03-05T07:37:16;10.83;;;6.53;;
1785;SDS011;890;48.158;11.540;2023-03-05T07:39:42;10.63;;;7.73;;
1785;SDS011;890;48.158;11.540;2023-03-05T07:42:07;12.20;;;7.37;;
1785;SDS011;890;48.158;11.540;2023-03-05T07:44:33;29.83;;;18.17;;
1785;SDS011;890;48.158;11.540;2023-03-05T07:46:58;16.03;;;9.33;;
1785;SDS011;890;48.158;11.540;2023-03-05T07:49:24;19.97;;;9.53;;
1785;SDS011;890;48.158;11.540;2023-03-05T07:51:50;14.33;;;7.03;;
1785;SDS011;890;48.158;11.540;2023-03-05T07:54:15;14.87;;;7.00;;
1785;SDS011;890;48.158;11.540;2023-03-05T07:56:41;20.17;;;9.30;;
1785;SDS011;890;48.158;11.540;2023-03-05T07:59:09;12.50;;;8.40;;
1785;SDS011;890;48.158;11.540;2023-03-05T08:01:36;17.37;;;8.27;;
1785;SDS011;890;48.158;11.540;2023-03-05T08:04:02;30.27;;;20.03;;
1785;SDS011;890;48.158;11.540;2023-03-05T08:06:28;17.63;;;9.70;;
1785;SDS011;890;48.158;11.540;2023-03-05T08:08:54;15.73;;;8.53;;
1785;SDS011;890;48.158;11.540;2023-03-05T08:11:20;12.40;;;7.30;;
1785;SDS011;890;48.158;11.540;2023-03-05T08:13:46;14.43;;;8.10;;
1785;SDS011;890;48.158;11.540;2023-03-05T08:16:13;25.83;;;9.13;;
1785;SDS011;890;48.158;11.540;2023-03-05T08:18:41;12.80;;;7.17;;
1785;SDS011;890;48.158;11.540;2023-03-05T08:21:24;14.57;;;7.97;;
1785;SDS011;890;48.158;11.540;2023-03-05T08:23:53;15.33;;;7.90;;
1785;SDS011;890;48.158;11.540;2023-03-05T08:26:22;15.23;;;8.70;;
1785;SDS011;890;48.158;11.540;2023-03-05T08:28:49;17.07;;;10.43;;
1785;SDS011;890;48.158;11.540;2023-03-05T08:31:16;15.63;;;11.23;;
1785;SDS011;890;48.158;11.540;2023-03-05T08:33:45;29.23;;;19.97;;
1785;SDS011;890;48.158;11.540;2023-03-05T08:36:12;30.30;;;19.63;;
1785;SDS011;890;48.158;11.540;2023-03-05T08:38:37;30.30;;;21.10;;
1785;SDS011;890;48.158;11.540;2023-03-05T08:41:03;31.73;;;19.87;;
1785;SDS011;890;48.158;11.540;2023-03-05T08:43:29;20.57;;;11.77;;
1785;SDS011;890;48.158;11.540;2023-03-05T08:45:55;13.63;;;7.03;;
1785;SDS011;890;48.158;11.540;2023-03-05T08:48:21;12.00;;;7.07;;
1785;SDS011;890;48.158;11.540;2023-03-05T08:50:46;19.23;;;10.27;;
1785;SDS011;890;48.158;11.540;2023-03-05T08:53:13;30.43;;;20.27;;
1785;SDS011;890;48.158;11.540;2023-03-05T08:55:38;28.33;;;20.30;;
1785;SDS011;890;48.158;11.540;2023-03-05T08:58:04;16.87;;;10.40;;
1785;SDS011;890;48.158;11.540;2023-03-05T09:00:29;18.63;;;10.57;;
1785;SDS011;890;48.158;11.540;2023-03-05T09:02:55;18.40;;;8.90;;
1785;SDS011;890;48.158;11.540;2023-03-05T09:05:21;16.17;;;11.43;;
1785;SDS011;890;48.158;11.540;2023-03-05T09:07:46;13.90;;;6.60;;
1785;SDS011;890;48.158;11.540;2023-03-05T09:10:12;22.43;;;11.77;;
1785;SDS011;890;48.158;11.540;2023-03-05T09:12:39;13.70;;;8.63;;
1785;SDS011;890;48.158;11.540;2023-03-05T09:15:06;32.77;;;20.77;;
1785;SDS011;890;48.158;11.540;2023-03-05T09:17:37;31.33;;;20.50;;
1785;SDS011;890;48.158;11.540;2023-03-05T09:20:04;19.70;;;11.13;;
1785;SDS011;890;48.158;11.540;2023-03-05T09:22:30;19.00;;;11.00;;
1785;SDS011;890;48.158;11.540;2023-03-05T09:24:56;12.43;;;7.53;;
1785;SDS011;890;48.158;11.540;2023-03-05T09:27:22;18.83;;;8.03;;
1785;SDS011;890;48.158;11.540;2023-03-05T09:29:48;18.03;;;8.63;;
1785;SDS011;890;48.158;11.540;2023-03-05T09:32:14;36.07;;;19.67;;
1785;SDS011;890;48.158;11.540;2023-03-05T09:34:39;29.53;;;19.40;;
1785;SDS011;890;48.158;11.540;2023-03-05T09:37:05;31.03;;;20.47;;
1785;SDS011;890;48.158;11.540;2023-03-05T09:39:32;29.93;;;19.00;;
1785;SDS011;890;48.158;11.540;2023-03-05T09:42:09;31.30;;;20.40;;
1785;SDS011;890;48.158;11.540;2023-03-05T09:53:09;12.17;;;8.40;;
1785;SDS011;890;48.158;11.540;2023-03-05T09:55:55;23.10;;;11.73;;
1785;SDS011;890;48.158;11.540;2023-03-05T09:58:30;31.10;;;20.87;;
1785;SDS011;890;48.158;11.540;2023-03-05T10:01:12;32.23;;;20.53;;
1785;SDS011;890;48.158;11.540;2023-03-05T10:03:51;29.23;;;19.43;;
1785;SDS011;890;48.158;11.540;2023-03-05T10:06:24;32.70;;;19.73;;
1785;SDS011;890;48.158;11.540;2023-03-05T10:14:13;23.03;;;15.43;;
1785;SDS011;890;48.158;11.540;2023-03-05T10:23:07;11.93;;;7.83;;
1785;SDS011;890;48.158;11.540;2023-03-05T10:28:54;12.07;;;6.23;;
1785;SDS011;890;48.158;11.540;2023-03-05T10:31:26;18.80;;;10.47;;
1785;SDS011;890;48.158;11.540;2023-03-05T10:36:28;32.57;;;15.53;;
1785;SDS011;890;48.158;11.540;2023-03-05T10:41:42;33.17;;;19.90;;
1785;SDS011;890;48.158;11.540;2023-03-05T10:44:15;30.73;;;19.43;;
1785;SDS011;890;48.158;11.540;2023-03-05T10:46:47;29.27;;;17.33;;
1785;SDS011;890;48.158;11.540;2023-03-05T10:51:51;30.17;;;17.03;;
1785;SDS011;890;48.158;11.540;2023-03-05T10:54:31;29.53;;;19.60;;
1785;SDS011;890;48.158;11.540;2023-03-05T10:57:02;31.87;;;20.43;;
1785;SDS011;890;48.158;11.540;2023-03-05T10:59:49;33.00;;;20.87;;
1785;SDS011;890;48.158;11.540;2023-03-05T11:02:17;28.47;;;19.67;;
1785;SDS011;890;48.158;11.540;2023-03-05T11:04:44;29.33;;;18.97;;
1785;SDS011;890;48.158;11.540;2023-03-05T11:09:39;32.00;;;20.07;;
1785;SDS011;890;48.158;11.540;2023-03-05T11:12:10;27.43;;;17.97;;
1785;SDS011;890;48.158;11.540;2023-03-05T11:23:14;29.10;;;19.10;;
1785;SDS011;890;48.158;11.540;2023-03-05T11:28:32;31.07;;;19.87;;
1785;SDS011;890;48.158;11.540;2023-03-05T11:33:39;29.93;;;18.10;;
1785;SDS011;890;48.158;11.540;2023-03-05T11:39:08;31.83;;;21.20;;
1785;SDS011;890;48.158;11.540;2023-03-05T11:41:40;33.50;;;19.53;;
1785;SDS011;890;48.158;11.540;2023-03-05T11:44:13;29.63;;;18.83;;
1785;SDS011;890;48.158;11.540;2023-03-05T11:46:43;28.50;;;18.30;;
1785;SDS011;890;48.158;11.540;2023-03-05T11:49:31;30.53;;;20.67;;
1785;SDS011;890;48.158;11.540;2023-03-05T11:52:44;30.07;;;18.97;;
1785;SDS011;890;48.158;11.540;2023-03-05T11:57:40;30.50;;;20.60;;
1785;SDS011;890;48.158;11.540;2023-03-05T12:00:29;29.23;;;18.47;;
1785;SDS011;890;48.158;11.540;2023-03-05T12:02:57;29.63;;;18.87;;
1785;SDS011;890;48.158;11.540;2023-03-05T12:05:26;28.07;;;18.27;;
1785;SDS011;890;48.158;11.540;2023-03-05T12:07:54;29.63;;;18.50;;
1785;SDS011;890;48.158;11.540;2023-03-05T12:10:23;25.47;;;17.37;;
1785;SDS011;890;48.158;11.540;2023-03-05T12:20:41;22.27;;;16.30;;
1785;SDS011;890;48.158;11.540;2023-03-05T12:23:48;24.20;;;16.53;;
1785;SDS011;890;48.158;11.540;2023-03-05T12:26:52;26.40;;;17.17;;
1785;SDS011;890;48.158;11.540;2023-03-05T12:42:43;23.50;;;15.60;;
1785;SDS011;890;48.158;11.540;2023-03-05T12:47:37;22.93;;;14.53;;
1785;SDS011;890;48.158;11.540;2023-03-05T12:50:03;21.60;;;15.67;;
1785;SDS011;890;48.158;11.540;2023-03-05T12:52:49;21.10;;;14.23;;
1785;SDS011;890;48.158;11.540;2023-03-05T12:55:38;17.10;;;12.50;;
1785;SDS011;890;48.158;11.540;2023-03-05T12:58:18;19.77;;;13.87;;
1785;SDS011;890;48.158;11.540;2023-03-05T13:03:33;23.10;;;16.33;;
1785;SDS011;890;48.158;11.540;2023-03-05T13:09:25;18.57;;;13.60;;
1785;SDS011;890;48.158;11.540;2023-03-05T13:11:48;17.80;;;12.20;;
1785;SDS011;890;48.158;11.540;2023-03-05T13:14:27;19.63;;;13.07;;
1785;SDS011;890;48.158;11.540;2023-03-05T13:16:59;19.07;;;13.07;;
1785;SDS011;890;48.158;11.540;2023-03-05T13:19:25;19.70;;;12.77;;
1785;SDS011;890;48.158;11.540;2023-03-05T13:21:58;19.60;;;12.50;;
1785;SDS011;890;48.158;11.540;2023-03-05T13:24:25;18.80;;;12.10;;
1785;SDS011;890;48.158;11.540;2023-03-05T13:26:53;19.17;;;11.90;;
1785;SDS011;890;48.158;11.540;2023-03-05T13:29:20;19.23;;;11.93;;
1785;SDS011;890;48.158;11.540;2023-03-05T13:36:47;20.47;;;13.47;;
1785;SDS011;890;48.158;11.540;2023-03-05T13:39:26;19.00;;;12.20;;
1785;SDS011;890;48.158;11.540;2023-03-05T13:42:04;18.10;;;11.80;;
1785;SDS011;890;48.158;11.540;2023-03-05T13:44:38;18.73;;;12.07;;
1785;SDS011;890;48.158;11.540;2023-03-05T13:49:41;22.77;;;13.17;;
1785;SDS011;890;48.158;11.540;2023-03-05T13:52:08;20.97;;;12.53;;
1785;SDS011;890;48.158;11.540;2023-03-05T13:54:34;20.00;;;12.57;;
1785;SDS011;890;48.158;11.540;2023-03-05T13:57:01;21.67;;;13.87;;
1785;SDS011;890;48.158;11.540;2023-03-05T13:59:33;22.87;;;13.60;;
1785;SDS011;890;48.158;11.540;2023-03-05T14:02:03;20.97;;;12.57;;
1785;SDS011;890;48.158;11.540;2023-03-05T14:04:42;19.80;;;12.67;;
1785;SDS011;890;48.158;11.540;2023-03-05T14:09:54;19.50;;;12.97;;
1785;SDS011;890;48.158;11.540;2023-03-05T14:12:39;18.60;;;12.50;;
1785;SDS011;890;48.158;11.540;2023-03-05T14:15:21;19.07;;;11.97;;
1785;SDS011;890;48.158;11.540;2023-03-05T14:17:49;20.50;;;13.47;;
1785;SDS011;890;48.158;11.540;2023-03-05T14:20:22;18.90;;;12.60;;
1785;SDS011;890;48.158;11.540;2023-03-05T14:22:56;16.63;;;11.80;;
1785;SDS011;890;48.158;11.540;2023-03-05T14:25:33;19.80;;;13.20;;
1785;SDS011;890;48.158;11.540;2023-03-05T14:30:32;18.60;;;13.30;;
1785;SDS011;890;48.158;11.540;2023-03-05T14:33:00;20.97;;;12.77;;
1785;SDS011;890;48.158;11.540;2023-03-05T14:35:27;20.60;;;13.00;;
1785;SDS011;890;48.158;11.540;2023-03-05T14:37:54;21.00;;;13.60;;
1785;SDS011;890;48.158;11.540;2023-03-05T14:40:29;20.83;;;14.20;;
1785;SDS011;890;48.158;11.540;2023-03-05T14:42:58;19.50;;;14.43;;
1785;SDS011;890;48.158;11.540;2023-03-05T14:45:31;22.07;;;14.47;;
1785;SDS011;890;48.158;11.540;2023-03-05T14:47:59;26.80;;;15.83;;
1785;SDS011;890;48.158;11.540;2023-03-05T14:50:31;21.53;;;14.60;;
1785;SDS011;890;48.158;11.540;2023-03-05T14:53:02;24.40;;;15.63;;
1785;SDS011;890;48.158;11.540;2023-03-05T14:55:32;21.00;;;14.70;;
1785;SDS011;890;48.158;11.540;2023-03-05T14:58:19;23.57;;;14.47;;
1785;SDS011;890;48.158;11.540;2023-03-05T15:00:47;20.80;;;14.07;;
1785;SDS011;890;48.158;11.540;2023-03-05T15:03:14;22.67;;;14.67;;
1785;SDS011;890;48.158;11.540;2023-03-05T15:05:41;23.40;;;15.20;;
1785;SDS011;890;48.158;11.540;2023-03-05T15:08:14;23.00;;;13.90;;
1785;SDS011;890;48.158;11.540;2023-03-05T15:10:45;23.90;;;15.87;;
1785;SDS011;890;48.158;11.540;2023-03-05T15:13:11;27.07;;;16.23;;
1785;SDS011;890;48.158;11.540;2023-03-05T15:15:38;21.10;;;14.20;;
1785;SDS011;890;48.158;11.540;2023-03-05T15:18:05;20.10;;;13.23;;
1785;SDS011;890;48.158;11.540;2023-03-05T15:20:30;23.63;;;14.83;;
1785;SDS011;890;48.158;11.540;2023-03-05T15:22:56;24.50;;;14.50;;
1785;SDS011;890;48.158;11.540;2023-03-05T15:25:23;24.70;;;15.30;;
1785;SDS011;890;48.158;11.540;2023-03-05T15:27:50;23.63;;;15.50;;
1785;SDS011;890;48.158;11.540;2023-03-05T15:30:29;21.23;;;14.90;;
1785;SDS011;890;48.158;11.540;2023-03-05T15:32:58;24.03;;;15.27;;
1785;SDS011;890;48.158;11.540;2023-03-05T15:35:25;22.83;;;14.30;;
1785;SDS011;890;48.158;11.540;2023-03-05T15:37:51;25.17;;;17.70;;
1785;SDS011;890;48.158;11.540;2023-03-05T15:40:17;20.97;;;15.60;;
1785;SDS011;890;48.158;11.540;2023-03-05T15:42:44;27.50;;;16.63;;
1785;SDS011;890;48.158;11.540;2023-03-05T15:45:11;20.70;;;14.57;;
1785;SDS011;890;48.158;11.540;2023-03-05T15:47:36;22.33;;;16.03;;
1785;SDS011;890;48.158;11.540;2023-03-05T15:50:02;18.00;;;13.17;;
1785;SDS011;890;48.158;11.540;2023-03-05T15:52:28;21.33;;;13.03;;
1785;SDS011;890;48.158;11.540;2023-03-05T15:54:53;22.00;;;13.67;;
1785;SDS011;890;48.158;11.540;2023-03-05T15:57:19;19.53;;;13.63;;
1785;SDS011;890;48.158;11.540;2023-03-05T15:59:48;20.00;;;13.73;;
1785;SDS011;890;48.158;11.540;2023-03-05T16:02:13;16.10;;;11.90;;
1785;SDS011;890;48.158;11.540;2023-03-05T16:04:40;18.07;;;11.80;;
1785;SDS011;890;48.158;11.540;2023-03-05T16:07:05;15.43;;;10.50;;
1785;SDS011;890;48.158;11.540;2023-03-05T16:09:36;17.63;;;11.47;;
1785;SDS011;890;48.158;11.540;2023-03-05T16:12:06;12.93;;;10.00;;
1785;SDS011;890;48.158;11.540;2023-03-05T16:14:36;18.30;;;11.00;;
1785;SDS011;890;48.158;11.540;2023-03-05T16:17:02;14.10;;;10.53;;
1785;SDS011;890;48.158;11.540;2023-03-05T16:19:29;17.30;;;11.43;;
1785;SDS011;890;48.158;11.540;2023-03-05T16:21:58;14.27;;;11.07;;
1785;SDS011;890;48.158;11.540;2023-03-05T16:24:24;15.37;;;10.63;;
1785;SDS011;890;48.158;11.540;2023-03-05T16:26:50;15.53;;;10.60;;
1785;SDS011;890;48.158;11.540;2023-03-05T16:29:15;14.10;;;10.30;;
1785;SDS011;890;48.158;11.540;2023-03-05T16:31:41;13.00;;;10.33;;
1785;SDS011;890;48.158;11.540;2023-03-05T16:34:08;13.00;;;9.20;;
1785;SDS011;890;48.158;11.540;2023-03-05T16:36:34;12.90;;;11.30;;
1785;SDS011;890;48.158;11.540;2023-03-05T16:39:00;13.90;;;10.60;;